Time;durP1;ratioP1;P1;durP2;ratioP2;P2;SDS_P1;SDS_P2;PMS_P1;PMS_P2;Temp;Humidity;BMP_temperature;BMP_pressure;BME280_temperature;BME280_humidity;BME280_pressure;Samples;Min_cycle;Max_cycle;Signal;HPM_P1;HPM_P2
2021/11/23 00:00:42;;;;;;;16.27;3.30;;;25.70;22.10;;;;;;5052027;28;20069;-61
2021/11/23 00:03:09;;;;;;;32.05;4.15;;;25.60;22.00;;;;;;5069839;28;20530;-61
2021/11/23 00:05:36;;;;;;;37.83;5.63;;;25.60;22.00;;;;;;5056672;28;20077;-63
2021/11/23 00:08:03;;;;;;;24.25;3.47;;;25.50;22.00;;;;;;5035816;28;20180;-63
2021/11/23 00:10:30;;;;;;;28.08;4.50;;;25.50;22.00;;;;;;5036015;28;20065;-61
2021/11/23 00:12:57;;;;;;;22.95;3.17;;;25.50;22.10;;;;;;5042684;28;20086;-60
2021/11/23 00:15:23;;;;;;;18.90;3.22;;;25.40;22.20;;;;;;5051670;28;20084;-62
2021/11/23 00:17:49;;;;;;;26.13;3.28;;;25.30;22.40;;;;;;5070152;28;20566;-62
2021/11/23 00:20:16;;;;;;;23.48;3.38;;;25.20;22.30;;;;;;5073739;28;20529;-63
2021/11/23 00:22:42;;;;;;;36.25;4.50;;;25.20;23.30;;;;;;5053655;28;20122;-63
2021/11/23 00:25:09;;;;;;;50.33;5.38;;;25.10;23.20;;;;;;5066883;28;20115;-64
2021/11/23 00:27:35;;;;;;;31.95;4.50;;;25.00;22.60;;;;;;5059595;28;20088;-63
2021/11/23 00:30:02;;;;;;;21.60;4.18;;;24.90;23.00;;;;;;5059749;28;20088;-61
2021/11/23 00:32:29;;;;;;;26.35;3.67;;;24.80;23.20;;;;;;5065314;28;20141;-61
2021/11/23 00:34:56;;;;;;;22.42;3.45;;;24.70;23.70;;;;;;5054381;28;20105;-62
2021/11/23 00:37:22;;;;;;;17.77;3.15;;;24.70;23.70;;;;;;5071036;28;20100;-59
2021/11/23 00:39:49;;;;;;;25.00;3.17;;;24.60;23.70;;;;;;5052061;28;20069;-60
2021/11/23 00:42:15;;;;;;;19.20;3.70;;;24.50;24.20;;;;;;5035150;28;20184;-61
2021/11/23 00:44:41;;;;;;;20.63;3.42;;;24.40;24.10;;;;;;5083423;28;20315;-62
2021/11/23 00:47:08;;;;;;;21.27;3.97;;;24.30;24.50;;;;;;5078494;28;20092;-60
2021/11/23 00:49:34;;;;;;;15.13;4.82;;;24.20;24.50;;;;;;5043592;28;20092;-62
2021/11/23 00:52:01;;;;;;;30.55;4.93;;;24.10;24.80;;;;;;5066384;28;20122;-60
2021/11/23 00:54:27;;;;;;;26.38;4.50;;;24.10;25.50;;;;;;5053332;28;20088;-59
2021/11/23 00:56:53;;;;;;;19.30;4.00;;;23.90;25.40;;;;;;5089962;28;20090;-61
2021/11/23 00:59:20;;;;;;;25.08;3.80;;;23.90;25.50;;;;;;5052037;28;20095;-61
2021/11/23 01:01:46;;;;;;;17.73;4.22;;;23.80;25.40;;;;;;5086130;28;20210;-64
2021/11/23 01:04:12;;;;;;;23.65;4.68;;;23.80;26.00;;;;;;5057727;28;20542;-59
2021/11/23 01:06:39;;;;;;;27.38;5.55;;;23.70;26.00;;;;;;5062388;28;20446;-60
2021/11/23 01:09:05;;;;;;;26.45;4.88;;;23.70;25.50;;;;;;5063654;28;20080;-60
2021/11/23 01:11:32;;;;;;;41.45;4.68;;;23.70;25.50;;;;;;5055905;28;20079;-63
2021/11/23 01:13:58;;;;;;;21.30;3.65;;;23.60;25.60;;;;;;5069409;28;20073;-63
2021/11/23 01:16:25;;;;;;;24.30;3.75;;;23.60;26.20;;;;;;5069729;28;20100;-63
2021/11/23 01:18:51;;;;;;;41.55;4.68;;;23.60;26.40;;;;;;5055095;28;20570;-56
2021/11/23 01:21:17;;;;;;;39.65;4.15;;;23.60;26.20;;;;;;5063155;28;20122;-60
2021/11/23 01:23:44;;;;;;;32.63;3.92;;;23.50;26.40;;;;;;5055151;28;20065;-61
2021/11/23 01:26:10;;;;;;;22.15;3.72;;;23.50;26.40;;;;;;5061779;28;20975;-63
2021/11/23 01:28:37;;;;;;;21.70;3.28;;;23.40;26.20;;;;;;5082350;28;20172;-63
2021/11/23 01:31:03;;;;;;;27.02;3.58;;;23.40;26.50;;;;;;5058159;28;20073;-59
2021/11/23 01:33:30;;;;;;;22.60;3.53;;;23.40;26.90;;;;;;5067527;28;20089;-61
2021/11/23 01:35:56;;;;;;;19.17;4.80;;;23.40;27.10;;;;;;5071133;28;20234;-58
2021/11/23 01:38:22;;;;;;;45.67;5.13;;;23.30;27.00;;;;;;5055237;28;20081;-59
2021/11/23 01:40:49;;;;;;;32.38;4.72;;;23.30;27.10;;;;;;5069345;28;20088;-60
2021/11/23 01:43:16;;;;;;;31.83;5.10;;;23.20;27.50;;;;;;5074794;28;20076;-58
2021/11/23 01:45:43;;;;;;;41.05;4.78;;;23.10;28.20;;;;;;5048947;28;20096;-60
2021/11/23 01:48:11;;;;;;;31.48;4.88;;;23.10;28.10;;;;;;5060534;28;20566;-61
2021/11/23 01:50:38;;;;;;;55.28;6.70;;;23.10;28.20;;;;;;5071033;28;20578;-60
2021/11/23 01:53:07;;;;;;;36.90;4.90;;;23.00;28.30;;;;;;5056107;28;20069;-63
2021/11/23 01:55:40;;;;;;;37.13;5.18;;;23.00;28.90;;;;;;5058017;28;20088;-62
2021/11/23 01:58:07;;;;;;;36.60;4.90;;;22.90;29.00;;;;;;5039271;28;20100;-61
2021/11/23 02:00:35;;;;;;;35.67;4.70;;;22.90;28.70;;;;;;5054693;28;20118;-61
2021/11/23 02:03:01;;;;;;;34.40;5.00;;;22.90;28.40;;;;;;5060618;28;20152;-61
2021/11/23 02:05:28;;;;;;;39.30;5.28;;;22.80;28.30;;;;;;5082369;28;20958;-60
2021/11/23 02:07:55;;;;;;;50.78;6.30;;;22.80;28.90;;;;;;5064675;28;20142;-59
2021/11/23 02:10:21;;;;;;;44.00;4.95;;;22.70;28.90;;;;;;5076983;28;20102;-60
2021/11/23 02:12:48;;;;;;;54.65;5.38;;;22.60;29.00;;;;;;5072036;28;20931;-61
2021/11/23 02:15:15;;;;;;;41.83;5.47;;;22.60;29.40;;;;;;5054098;28;20081;-59
2021/11/23 02:17:44;;;;;;;62.28;6.53;;;22.50;29.60;;;;;;5089962;28;20085;-62
2021/11/23 02:20:13;;;;;;;46.08;6.97;;;22.40;29.80;;;;;;5061168;28;20084;-62
2021/11/23 02:22:40;;;;;;;65.43;8.85;;;22.40;29.70;;;;;;5060187;28;20542;-59
2021/11/23 02:25:08;;;;;;;51.25;6.78;;;22.30;29.40;;;;;;5045698;28;20442;-60
2021/11/23 02:27:35;;;;;;;48.05;6.97;;;22.30;29.60;;;;;;5061547;28;20068;-58
2021/11/23 02:30:04;;;;;;;60.53;9.02;;;22.20;29.70;;;;;;5054479;28;20516;-61
2021/11/23 02:32:54;;;;;;;50.63;9.07;;;22.10;29.80;;;;;;5037776;28;20172;-59
2021/11/23 02:35:26;;;;;;;44.20;8.50;;;22.00;29.90;;;;;;5055370;28;20169;-61
2021/11/23 02:37:56;;;;;;;60.80;9.18;;;22.00;29.70;;;;;;5072463;28;20076;-58
2021/11/23 02:40:24;;;;;;;52.00;9.10;;;22.00;30.10;;;;;;5053941;28;20099;-62
2021/11/23 02:42:50;;;;;;;54.83;8.85;;;22.00;30.10;;;;;;5089952;28;20116;-58
2021/11/23 02:45:20;;;;;;;63.88;10.20;;;21.90;30.20;;;;;;5076957;28;20101;-59
2021/11/23 02:47:46;;;;;;;66.15;9.93;;;21.90;30.00;;;;;;5084576;28;20073;-61
2021/11/23 02:50:15;;;;;;;76.13;10.93;;;21.80;30.40;;;;;;5064043;28;20140;-58
2021/11/23 02:52:44;;;;;;;80.13;12.55;;;21.80;30.20;;;;;;5060722;28;20126;-63
2021/11/23 02:55:11;;;;;;;71.43;12.43;;;21.80;30.40;;;;;;5087712;28;20190;-63
2021/11/23 02:57:38;;;;;;;84.80;13.02;;;21.80;30.60;;;;;;5056842;28;20089;-62
2021/11/23 03:00:14;;;;;;;74.05;12.57;;;21.70;30.30;;;;;;5057639;28;20122;-62
2021/11/23 03:02:40;;;;;;;76.07;12.95;;;21.70;30.20;;;;;;5054451;28;20112;-61
2021/11/23 03:05:08;;;;;;;71.90;12.65;;;21.70;30.70;;;;;;5071627;28;20079;-62
2021/11/23 03:07:34;;;;;;;69.40;12.65;;;21.70;31.10;;;;;;5067311;28;20076;-63
2021/11/23 03:10:07;;;;;;;76.10;13.63;;;21.60;30.00;;;;;;5046190;28;20092;-64
2021/11/23 03:12:34;;;;;;;70.20;13.00;;;21.60;29.90;;;;;;5062949;28;20159;-63
2021/11/23 03:15:01;;;;;;;60.85;13.48;;;21.60;29.80;;;;;;5067071;28;20542;-61
2021/11/23 03:17:27;;;;;;;60.40;13.88;;;21.50;29.60;;;;;;5055429;28;20764;-66
2021/11/23 03:19:54;;;;;;;62.40;13.05;;;21.50;29.80;;;;;;5091841;28;20076;-64
2021/11/23 03:22:20;;;;;;;61.15;12.15;;;21.50;29.50;;;;;;5051003;28;20085;-64
2021/11/23 03:24:47;;;;;;;70.68;12.18;;;21.60;29.10;;;;;;5053394;28;20069;-64
2021/11/23 03:27:14;;;;;;;47.88;11.18;;;21.60;28.30;;;;;;5067677;28;20080;-63
2021/11/23 03:29:42;;;;;;;65.68;11.90;;;21.60;27.90;;;;;;5060487;28;20104;-65
2021/11/23 03:32:10;;;;;;;59.15;12.43;;;21.60;27.50;;;;;;5061345;28;20115;-64
2021/11/23 03:34:39;;;;;;;73.45;12.98;;;21.60;27.60;;;;;;5065286;28;20109;-64
2021/11/23 03:37:13;;;;;;;51.75;11.27;;;21.60;28.30;;;;;;5055833;28;20098;-62
2021/11/23 03:39:41;;;;;;;71.22;12.32;;;21.50;27.90;;;;;;5070742;28;20519;-64
2021/11/23 03:42:08;;;;;;;68.80;13.55;;;21.50;28.50;;;;;;5052481;28;20523;-63
2021/11/23 03:44:36;;;;;;;59.50;12.30;;;21.50;28.30;;;;;;5071724;28;20167;-63
2021/11/23 03:47:05;;;;;;;63.45;12.38;;;21.50;28.50;;;;;;5055709;28;20081;-63
2021/11/23 03:49:32;;;;;;;66.85;11.88;;;21.50;29.10;;;;;;5083316;28;20215;-65
2021/11/23 03:51:59;;;;;;;74.57;13.52;;;21.40;29.20;;;;;;5078887;28;20080;-64
2021/11/23 03:54:26;;;;;;;71.70;14.18;;;21.40;28.90;;;;;;5060255;28;20073;-63
2021/11/23 03:56:52;;;;;;;69.22;12.45;;;21.40;29.00;;;;;;5066983;28;20099;-63
2021/11/23 03:59:20;;;;;;;70.15;11.98;;;21.30;30.00;;;;;;5054984;28;20097;-64
2021/11/23 04:01:47;;;;;;;60.60;11.77;;;21.40;29.80;;;;;;5071898;28;20069;-64
2021/11/23 04:04:13;;;;;;;62.78;12.10;;;21.40;29.40;;;;;;5051428;28;20129;-61
2021/11/23 04:06:40;;;;;;;60.28;11.52;;;21.30;29.10;;;;;;5052021;28;20107;-63
2021/11/23 04:09:07;;;;;;;49.67;10.60;;;21.30;28.70;;;;;;5058238;28;20102;-61
2021/11/23 04:11:33;;;;;;;34.22;7.28;;;21.30;26.90;;;;;;5062688;28;20077;-63
2021/11/23 04:14:00;;;;;;;38.95;7.20;;;21.40;25.30;;;;;;5063861;28;20143;-65
2021/11/23 04:16:27;;;;;;;36.67;7.38;;;21.40;24.20;;;;;;5057409;28;20130;-62
2021/11/23 04:18:54;;;;;;;30.77;6.07;;;21.50;24.80;;;;;;5069163;28;20167;-64
2021/11/23 04:21:20;;;;;;;23.92;5.50;;;21.50;24.80;;;;;;5064891;28;20155;-63
2021/11/23 04:23:47;;;;;;;31.05;6.68;;;21.50;24.80;;;;;;5060824;28;20076;-63
2021/11/23 04:26:13;;;;;;;22.38;5.93;;;21.50;24.60;;;;;;5055734;28;20081;-63
2021/11/23 04:28:40;;;;;;;42.35;6.90;;;21.50;24.70;;;;;;5051947;28;20084;-64
2021/11/23 04:31:06;;;;;;;18.60;5.45;;;21.50;24.90;;;;;;5060489;28;20153;-64
2021/11/23 04:33:34;;;;;;;51.03;8.52;;;21.50;24.70;;;;;;5081768;28;20134;-62
2021/11/23 04:36:01;;;;;;;55.88;7.82;;;21.50;24.40;;;;;;5055904;28;20104;-62
2021/11/23 04:38:28;;;;;;;81.47;9.35;;;21.40;24.70;;;;;;5087939;28;20122;-64
2021/11/23 04:40:54;;;;;;;68.80;8.00;;;21.40;25.30;;;;;;5035229;28;20073;-64
2021/11/23 04:43:21;;;;;;;72.55;9.10;;;21.40;26.00;;;;;;5070758;28;20415;-64
2021/11/23 04:45:47;;;;;;;63.13;7.20;;;21.40;26.70;;;;;;5056656;28;20065;-63
2021/11/23 04:48:14;;;;;;;84.85;9.40;;;21.40;26.80;;;;;;5052519;28;20069;-64
2021/11/23 04:50:40;;;;;;;66.80;8.20;;;21.30;27.10;;;;;;5061887;28;20093;-65
2021/11/23 04:53:08;;;;;;;67.18;7.32;;;21.30;27.20;;;;;;5063058;28;20069;-63
2021/11/23 04:55:35;;;;;;;47.65;7.80;;;21.30;26.10;;;;;;5055037;28;20133;-65
2021/11/23 04:58:02;;;;;;;42.00;7.20;;;21.30;25.80;;;;;;5064866;28;20081;-63
2021/11/23 05:00:28;;;;;;;50.67;6.72;;;21.30;26.40;;;;;;5071488;28;20635;-65
2021/11/23 05:02:54;;;;;;;43.72;7.55;;;21.20;26.00;;;;;;5052868;28;20492;-62
2021/11/23 05:05:21;;;;;;;35.88;6.65;;;21.20;26.70;;;;;;5086909;28;20426;-61
2021/11/23 05:07:47;;;;;;;37.88;6.70;;;21.30;25.60;;;;;;5062730;28;20073;-62
2021/11/23 05:10:15;;;;;;;26.30;6.07;;;21.30;25.70;;;;;;5046503;28;20076;-64
2021/11/23 05:12:41;;;;;;;33.75;5.95;;;21.20;25.90;;;;;;5045224;28;20076;-63
2021/11/23 05:15:10;;;;;;;28.58;6.38;;;21.20;25.70;;;;;;5071195;28;20157;-63
2021/11/23 05:17:37;;;;;;;25.88;6.07;;;21.20;26.40;;;;;;5039561;28;20699;-63
2021/11/23 05:20:06;;;;;;;19.05;6.00;;;21.20;26.70;;;;;;5073086;28;20073;-64
2021/11/23 05:22:32;;;;;;;28.15;6.97;;;21.20;26.70;;;;;;5091641;28;20124;-64
2021/11/23 05:24:59;;;;;;;25.73;6.93;;;21.10;26.60;;;;;;5054222;28;20076;-64
2021/11/23 05:27:25;;;;;;;22.05;5.55;;;21.10;26.20;;;;;;5062643;28;20120;-63
2021/11/23 05:29:51;;;;;;;34.72;6.78;;;21.10;26.10;;;;;;5066187;28;20126;-62
2021/11/23 05:32:18;;;;;;;33.72;6.65;;;21.10;27.20;;;;;;5051913;28;20555;-63
2021/11/23 05:34:44;;;;;;;25.55;5.85;;;21.10;27.30;;;;;;5055536;28;20116;-64
2021/11/23 05:37:11;;;;;;;28.05;4.65;;;21.10;27.10;;;;;;5056264;28;20104;-63
2021/11/23 05:39:37;;;;;;;31.52;5.07;;;21.10;26.90;;;;;;5059208;28;20073;-63
2021/11/23 05:42:04;;;;;;;20.60;5.20;;;21.00;26.90;;;;;;5075356;28;20543;-63
2021/11/23 05:44:30;;;;;;;23.80;5.07;;;21.00;27.00;;;;;;5070076;28;20434;-62
2021/11/23 05:46:57;;;;;;;35.40;5.53;;;21.00;27.00;;;;;;5081116;28;20156;-63
2021/11/23 05:49:23;;;;;;;24.65;5.47;;;21.00;26.60;;;;;;5063645;28;20083;-63
2021/11/23 05:51:49;;;;;;;33.95;5.07;;;21.00;26.80;;;;;;5074074;28;20083;-63
2021/11/23 05:54:16;;;;;;;22.73;5.40;;;21.00;26.90;;;;;;5070014;28;20076;-64
2021/11/23 05:56:42;;;;;;;26.83;5.15;;;21.00;27.60;;;;;;5075585;28;20435;-63
2021/11/23 05:59:09;;;;;;;23.15;5.50;;;21.00;26.70;;;;;;5055616;28;20076;-62
2021/11/23 06:01:35;;;;;;;28.17;6.45;;;20.90;26.50;;;;;;5090894;28;20506;-61
2021/11/23 06:04:01;;;;;;;33.50;5.30;;;20.90;27.40;;;;;;5079016;28;20138;-62
2021/11/23 06:06:28;;;;;;;20.80;5.47;;;20.90;27.80;;;;;;5066587;28;20488;-63
2021/11/23 06:08:54;;;;;;;;;;;20.90;27.00;;;;;;5066394;28;20130;-64
2021/11/23 06:11:21;;;;;;;56.88;7.03;;;20.90;26.70;;;;;;5059015;28;21263;-62
2021/11/23 06:13:47;;;;;;;31.20;6.35;;;20.90;26.80;;;;;;5056802;28;20069;-64
2021/11/23 06:16:16;;;;;;;54.33;6.35;;;20.90;26.90;;;;;;5091792;28;20089;-62
2021/11/23 06:18:43;;;;;;;24.33;4.90;;;20.80;26.50;;;;;;5054029;28;20138;-62
2021/11/23 06:21:09;;;;;;;32.28;4.97;;;20.80;25.80;;;;;;5057964;28;20515;-62
2021/11/23 06:23:36;;;;;;;19.45;5.20;;;20.90;26.10;;;;;;5078135;28;20073;-63
2021/11/23 06:26:03;;;;;;;76.03;8.40;;;20.90;26.30;;;;;;5073299;28;20073;-62
2021/11/23 06:28:31;;;;;;;466.15;35.40;;;20.80;26.30;;;;;;5061920;28;20442;-62
2021/11/23 06:30:58;;;;;;;146.40;16.98;;;20.80;27.30;;;;;;5086713;28;20073;-63
2021/11/23 06:33:24;;;;;;;52.60;7.07;;;20.80;26.60;;;;;;5039859;28;20077;-63
2021/11/23 06:35:51;;;;;;;42.03;6.80;;;20.80;26.90;;;;;;5073591;28;20104;-62
2021/11/23 06:38:17;;;;;;;45.03;5.60;;;20.80;26.80;;;;;;5053596;28;20569;-62
2021/11/23 06:40:45;;;;;;;42.17;5.22;;;20.80;27.50;;;;;;5071284;28;20079;-62
2021/11/23 06:43:11;;;;;;;21.75;4.88;;;20.80;27.90;;;;;;5059349;28;20546;-64
2021/11/23 06:45:39;;;;;;;22.95;4.57;;;20.80;28.10;;;;;;5081689;28;20111;-62
2021/11/23 06:48:11;;;;;;;25.38;5.20;;;20.80;27.80;;;;;;5061646;28;20079;-64
2021/11/23 06:50:39;;;;;;;26.73;5.15;;;20.80;28.00;;;;;;5085610;28;20089;-63
2021/11/23 06:53:07;;;;;;;30.90;5.82;;;20.70;28.00;;;;;;5073620;28;20081;-64
2021/11/23 06:55:35;;;;;;;24.42;4.88;;;20.70;28.50;;;;;;5074364;28;20080;-63
2021/11/23 06:58:01;;;;;;;23.15;5.10;;;20.70;28.30;;;;;;5069620;28;20085;-64
2021/11/23 07:00:28;;;;;;;30.52;5.18;;;20.70;28.40;;;;;;5071070;28;20075;-63
2021/11/23 07:02:54;;;;;;;26.88;5.57;;;20.70;28.00;;;;;;5069564;28;20064;-66
2021/11/23 07:05:21;;;;;;;19.50;5.78;;;20.60;29.00;;;;;;5061117;28;20076;-64
2021/11/23 07:07:47;;;;;;;28.45;6.05;;;20.70;29.30;;;;;;5061060;28;20159;-64
2021/11/23 07:10:14;;;;;;;35.20;5.18;;;20.60;28.60;;;;;;5058663;28;20079;-62
2021/11/23 07:12:41;;;;;;;26.88;4.88;;;20.50;28.40;;;;;;5060292;28;20069;-62
2021/11/23 07:15:09;;;;;;;25.02;4.75;;;20.60;28.90;;;;;;5056496;28;20069;-63
2021/11/23 07:17:35;;;;;;;28.75;5.78;;;20.50;29.30;;;;;;5052641;28;20566;-60
2021/11/23 07:20:03;;;;;;;28.35;5.50;;;20.50;29.60;;;;;;5064980;28;20073;-61
2021/11/23 07:22:29;;;;;;;24.20;5.38;;;20.50;29.50;;;;;;5068142;28;20076;-60
2021/11/23 07:24:55;;;;;;;;;;;20.50;30.00;;;;;;5054494;28;20065;-63
2021/11/23 07:27:21;;;;;;;19.42;5.25;;;20.50;29.80;;;;;;5053432;28;20003;-61
2021/11/23 07:29:48;;;;;;;;;;;20.50;29.90;;;;;;5036463;28;20076;-63
2021/11/23 07:32:14;;;;;;;23.35;5.60;;;20.50;30.40;;;;;;5071329;28;19965;-63
2021/11/23 07:34:41;;;;;;;26.25;5.95;;;20.40;30.30;;;;;;5070424;28;20105;-62
2021/11/23 07:37:08;;;;;;;23.38;5.72;;;20.40;29.70;;;;;;5070111;28;20093;-62
2021/11/23 07:39:35;;;;;;;27.45;5.85;;;20.40;29.30;;;;;;5055173;28;20157;-62
2021/11/23 07:42:04;;;;;;;21.75;5.88;;;20.40;29.10;;;;;;5053609;28;20600;-63
2021/11/23 07:44:30;;;;;;;21.75;6.57;;;20.40;29.40;;;;;;5052049;28;20081;-62
2021/11/23 07:46:57;;;;;;;29.42;6.82;;;20.40;29.20;;;;;;5053276;28;20096;-61
2021/11/23 07:49:24;;;;;;;21.08;6.43;;;20.40;28.50;;;;;;5052048;28;20450;-59
2021/11/23 07:51:50;;;;;;;23.15;6.40;;;20.40;28.50;;;;;;5052253;28;20076;-63
2021/11/23 07:54:16;;;;;;;27.02;6.18;;;20.40;28.10;;;;;;5052027;28;20092;-63
2021/11/23 07:56:43;;;;;;;23.20;6.25;;;20.40;27.90;;;;;;5036945;28;20100;-63
2021/11/23 07:59:11;;;;;;;19.92;5.72;;;20.40;27.90;;;;;;5070737;28;20068;-59
2021/11/23 08:01:38;;;;;;;25.58;6.13;;;20.40;28.30;;;;;;5053339;28;20523;-61
2021/11/23 08:04:05;;;;;;;27.52;5.85;;;20.40;28.40;;;;;;5052394;28;20086;-60
2021/11/23 08:06:31;;;;;;;24.23;5.63;;;20.40;28.60;;;;;;5052880;28;20073;-64
2021/11/23 08:08:58;;;;;;;24.40;4.10;;;20.40;28.90;;;;;;5053167;28;20099;-57
2021/11/23 08:11:24;;;;;;;17.25;4.28;;;20.40;28.10;;;;;;5052012;28;20091;-60
2021/11/23 08:13:51;;;;;;;17.63;3.40;;;20.40;28.10;;;;;;5051990;28;20103;-64
2021/11/23 08:16:17;;;;;;;17.38;2.85;;;20.40;27.60;;;;;;5051514;28;20093;-63
2021/11/23 08:18:44;;;;;;;15.93;2.60;;;20.40;26.80;;;;;;5055464;28;20585;-60
2021/11/23 08:21:10;;;;;;;;;;;20.40;26.70;;;;;;5052411;28;20416;-60
2021/11/23 08:23:36;;;;;;;19.88;2.75;;;20.40;27.00;;;;;;5073034;28;20014;-60
2021/11/23 08:26:03;;;;;;;19.38;3.00;;;20.30;27.40;;;;;;5054700;28;20084;-61
2021/11/23 08:28:30;;;;;;;13.80;2.90;;;20.30;27.60;;;;;;5037604;28;20108;-64
2021/11/23 08:30:58;;;;;;;17.15;2.40;;;20.30;27.80;;;;;;5035430;28;20524;-64
2021/11/23 08:33:25;;;;;;;13.05;2.15;;;20.30;27.70;;;;;;5018865;28;20081;-63
2021/11/23 08:35:52;;;;;;;13.43;2.20;;;20.30;27.60;;;;;;5069672;28;20681;-64
2021/11/23 08:38:19;;;;;;;12.02;2.15;;;20.30;27.80;;;;;;5053228;28;20089;-62
2021/11/23 08:40:45;;;;;;;13.65;2.25;;;20.30;27.80;;;;;;5051314;28;20144;-60
2021/11/23 08:43:12;;;;;;;6.10;2.08;;;20.20;27.70;;;;;;5053609;28;20143;-63
2021/11/23 08:45:39;;;;;;;10.50;1.90;;;20.20;28.10;;;;;;5069298;28;20104;-63
2021/11/23 08:48:06;;;;;;;17.08;2.33;;;20.20;27.90;;;;;;5069664;28;20073;-64
2021/11/23 08:50:33;;;;;;;12.38;2.15;;;20.30;27.20;;;;;;5070937;28;20120;-63
2021/11/23 08:53:02;;;;;;;17.20;2.53;;;20.20;26.70;;;;;;5051661;28;20072;-62
2021/11/23 08:55:29;;;;;;;12.90;2.13;;;20.20;26.80;;;;;;5068609;28;20068;-62
2021/11/23 08:57:55;;;;;;;7.28;1.80;;;20.10;26.80;;;;;;5052906;28;20497;-61
2021/11/23 09:00:22;;;;;;;;;;;20.10;26.80;;;;;;5051674;28;20097;-63
2021/11/23 09:02:53;;;;;;;12.13;2.10;;;20.00;26.70;;;;;;5051716;28;19957;-61
2021/11/23 09:05:22;;;;;;;9.75;2.20;;;20.10;26.20;;;;;;5051035;28;20089;-61
2021/11/23 09:07:49;;;;;;;8.07;1.98;;;20.10;26.00;;;;;;5051397;28;20485;-61
2021/11/23 09:10:23;;;;;;;12.05;1.60;;;20.10;26.00;;;;;;5071149;28;20073;-65
2021/11/23 09:12:52;;;;;;;12.15;1.67;;;20.10;25.70;;;;;;5051525;28;20076;-63
2021/11/23 09:15:19;;;;;;;18.67;2.00;;;20.10;25.50;;;;;;5051368;28;20126;-63
2021/11/23 09:17:47;;;;;;;11.65;1.45;;;20.20;24.90;;;;;;5051014;28;20093;-63
2021/11/23 09:20:15;;;;;;;7.30;1.98;;;20.20;25.00;;;;;;5052208;28;20126;-63
2021/11/23 09:22:42;;;;;;;7.20;1.88;;;20.20;24.90;;;;;;5051479;28;20104;-63
2021/11/23 09:25:14;;;;;;;11.30;1.70;;;20.30;24.10;;;;;;5054633;28;20080;-62
2021/11/23 09:27:41;;;;;;;3.90;1.70;;;20.30;24.00;;;;;;5052623;28;20095;-61
2021/11/23 09:30:10;;;;;;;8.70;1.70;;;20.30;24.00;;;;;;5066344;28;20096;-62
2021/11/23 09:32:36;;;;;;;7.55;1.40;;;20.30;23.80;;;;;;5051522;28;20172;-61
2021/11/23 09:35:04;;;;;;;12.35;1.40;;;20.40;23.80;;;;;;5050638;28;20116;-63
2021/11/23 09:37:30;;;;;;;8.40;1.48;;;20.40;23.50;;;;;;5051501;28;20101;-62
2021/11/23 09:39:57;;;;;;;6.07;1.60;;;20.40;23.50;;;;;;5070393;28;20477;-62
2021/11/23 09:42:23;;;;;;;8.02;1.35;;;20.40;23.40;;;;;;5034530;28;20069;-63
2021/11/23 09:44:50;;;;;;;2.45;1.13;;;20.40;23.40;;;;;;5071605;28;20121;-63
2021/11/23 09:47:16;;;;;;;9.27;1.52;;;20.40;23.70;;;;;;5052282;28;20077;-60
2021/11/23 09:49:43;;;;;;;14.13;2.22;;;20.30;23.70;;;;;;5050589;28;20522;-64
2021/11/23 09:52:10;;;;;;;9.55;1.42;;;20.30;23.70;;;;;;5055759;28;20160;-61
2021/11/23 09:54:39;;;;;;;4.65;1.42;;;20.30;23.00;;;;;;5054793;28;20073;-64
2021/11/23 09:57:06;;;;;;;8.15;1.55;;;20.30;23.00;;;;;;5054339;28;20096;-63
2021/11/23 09:59:32;;;;;;;4.57;1.30;;;20.30;23.20;;;;;;5074438;28;20156;-63
2021/11/23 10:02:01;;;;;;;12.63;1.52;;;20.30;23.30;;;;;;5038069;28;20134;-64
2021/11/23 10:04:30;;;;;;;9.20;1.60;;;20.30;23.50;;;;;;5054460;28;20069;-62
2021/11/23 10:07:06;;;;;;;13.15;2.05;;;20.30;23.40;;;;;;5054534;28;20483;-60
2021/11/23 10:09:41;;;;;;;12.45;1.63;;;20.30;23.80;;;;;;5037949;28;20092;-62
2021/11/23 10:12:20;;;;;;;10.38;1.67;;;20.30;24.20;;;;;;5056986;28;20075;-65
2021/11/23 10:15:11;;;;;;;11.20;2.10;;;20.30;25.20;;;;;;5053715;28;20214;-62
2021/11/23 10:17:41;;;;;;;9.32;3.03;;;20.30;25.20;;;;;;5054467;28;20081;-60
2021/11/23 10:20:34;;;;;;;10.30;2.28;;;20.20;24.20;;;;;;5070490;28;20129;-62
2021/11/23 10:23:32;;;;;;;13.02;2.42;;;20.20;25.20;;;;;;5053811;28;20084;-63
2021/11/23 10:26:19;;;;;;;9.57;2.63;;;20.20;24.40;;;;;;5054876;28;20077;-63
2021/11/23 10:28:55;;;;;;;14.23;2.70;;;20.20;24.50;;;;;;5055651;28;20526;-61
2021/11/23 10:31:32;;;;;;;8.30;2.80;;;20.20;24.80;;;;;;5053798;28;20073;-63
2021/11/23 10:34:04;;;;;;;11.60;3.13;;;20.10;24.70;;;;;;5071019;28;20072;-59
2021/11/23 10:36:41;;;;;;;14.38;3.08;;;20.10;24.90;;;;;;5053634;28;20112;-63
2021/11/23 10:39:17;;;;;;;12.05;2.88;;;20.20;26.00;;;;;;5071738;28;20477;-62
2021/11/23 10:41:53;;;;;;;10.40;2.60;;;20.20;25.80;;;;;;5072453;28;20069;-63
2021/11/23 10:44:21;;;;;;;13.30;2.72;;;20.20;25.40;;;;;;5053178;28;20072;-61
2021/11/23 10:46:55;;;;;;;10.63;2.63;;;20.20;25.00;;;;;;5053826;28;20126;-64
2021/11/23 10:49:46;;;;;;;7.55;2.35;;;20.20;25.70;;;;;;5054290;28;20541;-63
2021/11/23 10:52:38;;;;;;;9.85;2.20;;;20.10;25.80;;;;;;5023187;28;20077;-61
2021/11/23 10:55:28;;;;;;;11.65;2.50;;;20.10;25.90;;;;;;5073379;28;20073;-62
2021/11/23 10:57:57;;;;;;;12.02;2.10;;;20.00;25.60;;;;;;5053858;28;20105;-66
2021/11/23 11:00:27;;;;;;;7.82;2.10;;;20.00;25.70;;;;;;5071447;28;20072;-63
2021/11/23 11:02:59;;;;;;;8.70;2.20;;;20.00;25.90;;;;;;5052036;28;20142;-64
2021/11/23 11:05:27;;;;;;;9.40;2.33;;;20.00;26.30;;;;;;5052694;28;20519;-63
2021/11/23 11:07:56;;;;;;;9.30;2.30;;;19.90;26.60;;;;;;5055199;28;20443;-62
2021/11/23 11:10:23;;;;;;;12.48;2.33;;;20.00;26.90;;;;;;5036160;28;20097;-60
2021/11/23 11:12:49;;;;;;;7.80;2.00;;;19.90;27.30;;;;;;5070181;28;20065;-63
2021/11/23 11:15:17;;;;;;;;;;;19.90;26.90;;;;;;5053219;28;20069;-60
2021/11/23 11:17:46;;;;;;;14.07;2.95;;;19.90;26.80;;;;;;5072074;28;19984;-62
2021/11/23 11:20:30;;;;;;;9.85;3.13;;;19.90;26.50;;;;;;5052926;28;20451;-62
2021/11/23 11:23:05;;;;;;;9.25;1.98;;;19.90;26.60;;;;;;5039728;28;20069;-60
2021/11/23 11:25:57;;;;;;;13.80;2.33;;;20.00;26.40;;;;;;5053513;28;20145;-62
2021/11/23 11:28:45;;;;;;;9.32;2.30;;;19.90;26.60;;;;;;5053459;28;20073;-63
2021/11/23 11:31:30;;;;;;;15.10;2.60;;;20.00;26.80;;;;;;5054122;28;20104;-63
2021/11/23 11:34:18;;;;;;;10.05;2.63;;;20.00;26.10;;;;;;5052263;28;20175;-62
2021/11/23 11:36:46;;;;;;;6.80;1.85;;;20.00;25.40;;;;;;5056099;28;20103;-63
2021/11/23 11:39:37;;;;;;;8.65;2.17;;;19.90;24.80;;;;;;5052599;28;20077;-63
2021/11/23 11:42:08;;;;;;;17.85;3.65;;;20.00;25.00;;;;;;5054378;28;20574;-62
2021/11/23 11:44:43;;;;;;;21.88;4.18;;;20.00;25.30;;;;;;5037106;28;20427;-62
2021/11/23 11:47:13;;;;;;;18.92;4.47;;;20.00;26.10;;;;;;5051821;28;20092;-61
2021/11/23 11:49:49;;;;;;;20.75;4.43;;;20.00;26.10;;;;;;5069492;28;20580;-62
2021/11/23 11:52:17;;;;;;;24.13;5.18;;;20.00;26.20;;;;;;5064962;28;20081;-62
2021/11/23 11:54:45;;;;;;;21.13;5.70;;;20.00;26.30;;;;;;5052230;28;20097;-62
2021/11/23 11:57:29;;;;;;;31.23;5.22;;;20.00;26.50;;;;;;5052492;28;20093;-62
2021/11/23 12:00:15;;;;;;;24.75;5.57;;;19.90;26.30;;;;;;5052183;28;20077;-60
2021/11/23 12:02:42;;;;;;;22.50;5.72;;;19.90;26.60;;;;;;5054643;28;20089;-62
2021/11/23 12:05:08;;;;;;;;;;;19.90;26.40;;;;;;5036015;28;20202;-63
2021/11/23 12:07:48;;;;;;;20.02;5.45;;;20.00;26.00;;;;;;5071696;28;20063;-63
2021/11/23 12:10:25;;;;;;;19.40;4.93;;;19.90;30.00;;;;;;5072856;28;20103;-58
2021/11/23 12:13:06;;;;;;;25.65;5.53;;;;;;;;;;5020018;28;20141;-61
2021/11/23 12:15:57;;;;;;;28.85;6.20;;;20.20;26.00;;;;;;5051658;28;20037;-63
2021/11/23 12:18:35;;;;;;;25.70;6.18;;;20.10;25.20;;;;;;5053413;28;20112;-62
2021/11/23 12:21:09;;;;;;;30.98;6.22;;;20.10;25.60;;;;;;5051914;28;20073;-61
2021/11/23 12:23:57;;;;;;;29.00;5.97;;;20.20;27.20;;;;;;5053538;28;20073;-61
2021/11/23 12:26:36;;;;;;;19.23;5.53;;;20.10;29.10;;;;;;5052914;28;20443;-63
2021/11/23 12:29:11;;;;;;;26.13;5.30;;;20.00;29.70;;;;;;5069804;28;20072;-62
2021/11/23 12:31:45;;;;;;;17.70;4.30;;;20.00;58.50;;;;;;5035552;28;20024;-62
2021/11/23 12:34:12;;;;;;;15.18;4.15;;;19.80;30.60;;;;;;5067719;28;20589;-59
2021/11/23 12:36:46;;;;;;;18.23;4.10;;;20.10;53.60;;;;;;5055414;28;20024;-62
2021/11/23 12:39:37;;;;;;;14.80;2.90;;;20.10;28.70;;;;;;5052801;28;20103;-63
2021/11/23 12:42:12;;;;;;;22.58;5.93;;;20.10;27.60;;;;;;5051829;28;20494;-64
2021/11/23 12:44:42;;;;;;;27.00;7.55;;;20.20;28.50;;;;;;5051984;28;20098;-59
2021/11/23 12:47:21;;;;;;;29.50;8.90;;;20.20;30.20;;;;;;5053410;28;20077;-62